Aviation Digital Data Service (ADDS)

Output produced by METARs form (1450 UTC 22 April 2021)
found at http://www.aviationweather.gov/metar/data/
 
VTCC 221430Z 20011KT 9999 FEW035 30/21 Q1007 NOSIG
VTCC 221400Z 20009KT 9999 FEW035 31/21 Q1007 NOSIG
VTCC 221330Z 19011KT 9999 SCT035 31/21 Q1007 NOSIG
VTCC 221300Z 20010KT 9999 FEW035 32/20 Q1006 NOSIG
VTCC 221230Z 25004KT 220V290 9999 FEW035 33/20 Q1006 NOSIG
VTCC 221200Z 25006KT 9999 FEW035 33/20 Q1005 NOSIG
VTCC 221130Z 25004KT 9999 FEW035 33/20 Q1005 NOSIG
VTCC 221100Z 25005KT 9999 FEW035 34/21 Q1005 NOSIG
VTCC 221030Z 24007KT 9999 FEW035 35/20 Q1005 NOSIG
VTCC 221000Z 23006KT 9999 FEW035 35/19 Q1005 NOSIG
VTCC 220930Z 22004KT 190V270 9999 FEW035 36/19 Q1005 NOSIG
VTCC 220900Z 17006KT 140V200 9999 FEW035 36/21 Q1005 NOSIG
VTCC 220830Z 18004KT 120V230 9999 FEW035 36/21 Q1005 NOSIG
VTCC 220800Z VRB02KT 9999 FEW035 36/20 Q1006 NOSIG
VTCC 220730Z VRB03KT 9999 FEW035 36/20 Q1006 NOSIG
VTCC 220700Z VRB04KT 9999 FEW035 36/21 Q1007 NOSIG
VTCC 220630Z 16003KT 090V250 9999 FEW035 35/21 Q1008 NOSIG
VTCC 220600Z VRB02KT 9999 FEW035 35/22 Q1009 NOSIG
VTCC 220530Z VRB03KT 9999 FEW035 35/23 Q1009 NOSIG
VTCC 220500Z VRB03KT 9999 FEW035 34/23 Q1010 NOSIG
VTCC 220430Z 12004KT 060V190 9999 FEW035 33/23 Q1010 NOSIG
VTCC 220400Z VRB04KT 9999 FEW035 32/23 Q1011 NOSIG
VTCC 220330Z VRB03KT 9000 FEW035 32/23 Q1011 NOSIG
VTCC 220300Z VRB03KT 9000 FEW035 32/24 Q1011 NOSIG
VTCC 220230Z VRB03KT 9000 NSC 30/23 Q1012 NOSIG
VTCC 220200Z VRB03KT CAVOK 29/23 Q1012 NOSIG
VTCC 220130Z VRB02KT CAVOK 29/22 Q1011 NOSIG
VTCC 220100Z 00000KT CAVOK 28/22 Q1011 NOSIG
VTCC 220030Z 00000KT CAVOK 27/22 Q1011 NOSIG
VTCC 220000Z VRB01KT CAVOK 26/22 Q1010 NOSIG
VTCC 212330Z VRB01KT CAVOK 25/22 Q1010 NOSIG
VTCC 212300Z 26002KT CAVOK 26/22 Q1010 NOSIG
VTCC 212230Z VRB01KT CAVOK 26/22 Q1009 NOSIG
VTCC 212200Z 36005KT CAVOK 25/22 Q1009 NOSIG
VTCC 212130Z 36005KT CAVOK 25/22 Q1008 NOSIG
VTCC 212100Z 07001KT CAVOK 26/22 Q1008 NOSIG
VTCC 212030Z 00000KT CAVOK 26/22 Q1008 NOSIG
VTCC 212000Z VRB01KT 9999 FEW035 26/22 Q1008 NOSIG
VTCC 211930Z 00000KT 9999 FEW035 27/23 Q1008 NOSIG
VTCC 211900Z VRB01KT 9999 FEW035 27/22 Q1008 NOSIG
VTCC 211830Z 23003KT 9999 FEW035 28/22 Q1008 NOSIG
VTCC 211800Z 24003KT 9999 FEW035 28/22 Q1009 NOSIG
VTCC 211730Z 17005KT 9999 FEW035 28/22 Q1009 NOSIG
VTCC 211700Z 20004KT 9999 FEW035 28/22 Q1009 NOSIG
VTCC 211630Z 22006KT 9999 FEW035 29/22 Q1009 NOSIG
VTCC 211600Z 20005KT 9999 FEW035 29/22 Q1010 NOSIG
VTCC 211530Z 23004KT 9999 FEW035 30/22 Q1009 NOSIG
VTCC 211500Z 22006KT 9999 FEW035 31/21 Q1009 NOSIG
TAF VTCC 221100Z 2212/2318 23005KT 9999 FEW035 
     BECMG 2218/2220 36005KT 
     BECMG 2301/2303 18005KT